createdAt,value
2018-04-11T00:00:00.659Z,798.58
2018-04-11T00:00:04.773Z,798.59
2018-04-11T00:00:08.983Z,798.59
2018-04-11T00:00:13.088Z,798.61
2018-04-11T00:00:17.196Z,798.59
2018-04-11T00:00:21.516Z,798.61
2018-04-11T00:00:25.894Z,798.58
2018-04-11T00:00:30.107Z,798.57
2018-04-11T00:00:34.315Z,798.6
2018-04-11T00:00:38.522Z,798.61
2018-04-11T00:00:42.406Z,798.6
2018-04-11T00:00:46.622Z,798.63
2018-04-11T00:00:50.943Z,798.63
2018-04-11T00:00:55.046Z,798.62
2018-04-11T00:00:59.258Z,798.65
2018-04-11T00:01:03.469Z,798.63
2018-04-11T00:01:07.573Z,798.62
2018-04-11T00:01:11.891Z,798.62
2018-04-11T00:01:16.101Z,798.65
2018-04-11T00:01:20.419Z,798.66
2018-04-11T00:01:24.625Z,798.61
2018-04-11T00:01:28.734Z,798.65
2018-04-11T00:01:32.737Z,798.65
2018-04-11T00:01:36.946Z,798.66
2018-04-11T00:01:40.946Z,798.65
2018-04-11T00:01:44.942Z,798.67
2018-04-11T00:01:49.258Z,798.67
2018-04-11T00:01:53.583Z,798.7
2018-04-11T00:01:57.898Z,798.7
2018-04-11T00:02:02.217Z,798.7
2018-04-11T00:02:06.216Z,798.7
2018-04-11T00:02:10.421Z,798.66
2018-04-11T00:02:14.523Z,798.66
2018-04-11T00:02:18.521Z,798.68
2018-04-11T00:02:22.886Z,798.67
2018-04-11T00:02:26.991Z,798.72
2018-04-11T00:02:31.333Z,798.66
2018-04-11T00:02:35.657Z,798.74
2018-04-11T00:02:39.868Z,798.73
2018-04-11T00:02:44.084Z,798.76
2018-04-11T00:02:48.080Z,798.74
2018-04-11T00:02:52.402Z,798.74
2018-04-11T00:02:56.714Z,798.75
2018-04-11T00:03:00.822Z,798.76
2018-04-11T00:03:04.925Z,798.76
2018-04-11T00:03:08.811Z,798.78
2018-04-11T00:03:12.911Z,798.79
2018-04-11T00:03:17.020Z,798.79
2018-04-11T00:03:21.127Z,798.82
2018-04-11T00:03:25.227Z,798.81
2018-04-11T00:03:29.437Z,798.76
2018-04-11T00:03:33.648Z,798.78
2018-04-11T00:03:37.877Z,798.78
2018-04-11T00:03:42.084Z,798.79
2018-04-11T00:03:46.302Z,798.84
2018-04-11T00:03:50.510Z,798.85
2018-04-11T00:03:54.722Z,798.85
2018-04-11T00:03:58.932Z,798.86
2018-04-11T00:04:03.036Z,798.85
2018-04-11T00:04:07.035Z,798.89
2018-04-11T00:04:11.258Z,798.89
2018-04-11T00:04:15.147Z,798.89
2018-04-11T00:04:19.363Z,798.91
2018-04-11T00:04:23.574Z,798.92
2018-04-11T00:04:27.720Z,798.92
2018-04-11T00:04:31.930Z,798.9
2018-04-11T00:04:36.035Z,798.96
2018-04-11T00:04:40.241Z,798.88
2018-04-11T00:04:44.454Z,798.91
2018-04-11T00:04:48.553Z,798.9
2018-04-11T00:04:52.761Z,798.97
2018-04-11T00:04:57.089Z,798.96
2018-04-11T00:05:01.296Z,798.97
2018-04-11T00:05:05.183Z,798.98
2018-04-11T00:05:09.180Z,798.96
2018-04-11T00:05:13.293Z,798.99
2018-04-11T00:05:17.506Z,799
2018-04-11T00:05:21.831Z,798.97
2018-04-11T00:05:26.144Z,799.01
2018-04-11T00:05:30.365Z,799
2018-04-11T00:05:34.684Z,799.03
2018-04-11T00:05:39.006Z,799.05
2018-04-11T00:05:43.111Z,799.02
2018-04-11T00:05:47.328Z,799.04
2018-04-11T00:05:51.427Z,799.05
2018-04-11T00:05:55.525Z,799.07
2018-04-11T00:05:59.897Z,799.06
2018-04-11T00:06:04.102Z,799.07
2018-04-11T00:06:08.101Z,799.07
2018-04-11T00:06:12.102Z,799.09
2018-04-11T00:06:16.309Z,799.07
2018-04-11T00:06:20.415Z,799.1
2018-04-11T00:06:24.420Z,799.08
2018-04-11T00:06:28.516Z,799.1
2018-04-11T00:06:32.833Z,799.11
2018-04-11T00:06:36.940Z,799.11
2018-04-11T00:06:41.084Z,799.11
2018-04-11T00:06:45.184Z,799.09
2018-04-11T00:06:49.306Z,799.13
2018-04-11T00:06:53.516Z,799.1
2018-04-11T00:06:57.622Z,799.15
2018-04-11T00:07:01.944Z,799.13
2018-04-11T00:07:06.276Z,799.14
2018-04-11T00:07:10.277Z,799.14
2018-04-11T00:07:14.527Z,799.14
2018-04-11T00:07:18.710Z,799.18
2018-04-11T00:07:23.167Z,799.14
2018-04-11T00:07:27.489Z,799.1
2018-04-11T00:07:31.608Z,799.15
2018-04-11T00:07:35.829Z,799.14
2018-04-11T00:07:40.152Z,799.15
2018-04-11T00:07:44.480Z,799.19
2018-04-11T00:07:48.469Z,799.2
2018-04-11T00:07:52.680Z,799.23
2018-04-11T00:07:57.007Z,799.22
2018-04-11T00:08:01.225Z,799.23
2018-04-11T00:08:05.680Z,799.23
2018-04-11T00:08:09.673Z,799.26
2018-04-11T00:08:14.002Z,799.24
2018-04-11T00:08:18.214Z,799.28
2018-04-11T00:08:22.323Z,799.27
2018-04-11T00:08:26.424Z,799.26
2018-04-11T00:08:30.641Z,799.28
2018-04-11T00:08:34.745Z,799.26
2018-04-11T00:08:38.959Z,799.31
2018-04-11T00:08:43.165Z,799.3
2018-04-11T00:08:47.272Z,799.33
2018-04-11T00:08:51.161Z,799.3
2018-04-11T00:08:55.481Z,799.33
2018-04-11T00:08:59.470Z,799.36
2018-04-11T00:09:03.686Z,799.32
2018-04-11T00:09:08.000Z,799.36
2018-04-11T00:09:12.209Z,799.36
2018-04-11T00:09:16.531Z,799.38
2018-04-11T00:09:20.634Z,799.38
2018-04-11T00:09:24.847Z,799.38
2018-04-11T00:09:29.162Z,799.41
2018-04-11T00:09:33.366Z,799.43
2018-04-11T00:09:37.677Z,799.41
2018-04-11T00:09:41.988Z,799.44
2018-04-11T00:09:46.198Z,799.43
2018-04-11T00:09:50.196Z,799.42
2018-04-11T00:09:54.515Z,799.45
2018-04-11T00:09:58.829Z,799.45
2018-04-11T00:10:03.027Z,799.47
2018-04-11T00:10:07.161Z,799.46
2018-04-11T00:10:11.478Z,799.5
2018-04-11T00:10:15.587Z,799.5
2018-04-11T00:10:19.793Z,799.5
2018-04-11T00:10:24.007Z,799.51
2018-04-11T00:10:28.002Z,799.52
2018-04-11T00:10:32.320Z,799.55
2018-04-11T00:10:36.639Z,799.53
2018-04-11T00:10:40.853Z,799.54
2018-04-11T00:10:45.178Z,799.55
2018-04-11T00:10:49.275Z,799.55
2018-04-11T00:10:53.375Z,799.52
2018-04-11T00:10:57.705Z,799.56
2018-04-11T00:11:02.009Z,799.54
2018-04-11T00:11:06.119Z,799.57
2018-04-11T00:11:10.326Z,799.58
2018-04-11T00:11:14.644Z,799.6
2018-04-11T00:11:18.851Z,799.6
2018-04-11T00:11:23.168Z,799.59
2018-04-11T00:11:27.277Z,799.63
2018-04-11T00:11:31.272Z,799.63
2018-04-11T00:11:35.374Z,799.62
2018-04-11T00:11:39.709Z,799.63
2018-04-11T00:11:43.927Z,799.65
2018-04-11T00:11:48.252Z,799.65
2018-04-11T00:11:52.456Z,799.56
2018-04-11T00:11:56.451Z,799.65
2018-04-11T00:12:00.558Z,799.69
2018-04-11T00:12:04.829Z,799.67
2018-04-11T00:12:09.047Z,799.68
2018-04-11T00:12:13.255Z,799.66
2018-04-11T00:12:17.357Z,799.66
2018-04-11T00:12:21.582Z,799.68
2018-04-11T00:12:25.906Z,799.71
2018-04-11T00:12:30.127Z,799.72
2018-04-11T00:12:34.337Z,799.74
2018-04-11T00:12:38.660Z,799.71
2018-04-11T00:12:42.977Z,799.76
2018-04-11T00:12:47.189Z,799.74
2018-04-11T00:12:51.511Z,799.74
2018-04-11T00:12:55.718Z,799.75
2018-04-11T00:13:00.038Z,799.78
2018-04-11T00:13:04.275Z,799.79
2018-04-11T00:13:08.490Z,799.76
2018-04-11T00:13:12.801Z,799.8
2018-04-11T00:13:16.906Z,799.8
2018-04-11T00:13:21.108Z,799.79
2018-04-11T00:13:25.101Z,799.81
2018-04-11T00:13:29.307Z,799.81
2018-04-11T00:13:33.404Z,799.84
2018-04-11T00:13:37.509Z,799.8
2018-04-11T00:13:41.722Z,799.79
2018-04-11T00:13:46.045Z,799.79
2018-04-11T00:13:50.266Z,799.85
2018-04-11T00:13:54.477Z,799.85
2018-04-11T00:13:58.690Z,799.9
2018-04-11T00:14:03.106Z,799.92
2018-04-11T00:14:07.421Z,799.94
2018-04-11T00:14:11.633Z,799.91
2018-04-11T00:14:15.841Z,799.93
2018-04-11T00:14:20.051Z,799.91
2018-04-11T00:14:24.266Z,799.91
2018-04-11T00:14:28.299Z,799.91
2018-04-11T00:14:32.616Z,799.9
2018-04-11T00:14:36.873Z,799.92
2018-04-11T00:14:40.973Z,799.93
2018-04-11T00:14:45.189Z,799.92
2018-04-11T00:14:49.507Z,799.94
2018-04-11T00:14:53.873Z,799.95
2018-04-11T00:14:57.989Z,799.97
2018-04-11T00:15:02.572Z,800
2018-04-11T00:15:06.792Z,799.99
2018-04-11T00:15:10.788Z,799.97
2018-04-11T00:15:15.129Z,799.97
2018-04-11T00:15:19.444Z,799.99
2018-04-11T00:15:23.548Z,800.03
2018-04-11T00:15:27.870Z,800.03
2018-04-11T00:15:32.227Z,800.06
2018-04-11T00:15:36.542Z,800.06
2018-04-11T00:15:40.865Z,800.06
2018-04-11T00:15:45.089Z,800.03
2018-04-11T00:15:49.409Z,800.07
2018-04-11T00:15:53.726Z,800.05
2018-04-11T00:15:58.042Z,800.02
2018-04-11T00:16:02.562Z,800.06
2018-04-11T00:16:06.775Z,800.13
2018-04-11T00:16:11.089Z,800.13
2018-04-11T00:16:15.297Z,800.13
2018-04-11T00:16:19.401Z,800.09
2018-04-11T00:16:23.616Z,800.13
2018-04-11T00:16:27.758Z,800.08
2018-04-11T00:16:31.967Z,800.08
2018-04-11T00:16:36.179Z,800.16
2018-04-11T00:16:40.504Z,800.17
2018-04-11T00:16:44.722Z,800.16
2018-04-11T00:16:49.042Z,800.18
2018-04-11T00:16:53.258Z,800.17
2018-04-11T00:16:57.267Z,800.21
2018-04-11T00:17:01.362Z,800.21
2018-04-11T00:17:05.376Z,800.21
2018-04-11T00:17:09.589Z,800.21
2018-04-11T00:17:14.013Z,800.24
2018-04-11T00:17:18.218Z,800.23
2018-04-11T00:17:22.324Z,800.23
2018-04-11T00:17:26.641Z,800.25
2018-04-11T00:17:30.866Z,800.25
2018-04-11T00:17:34.967Z,800.26
2018-04-11T00:17:39.294Z,800.27
2018-04-11T00:17:43.293Z,800.26
2018-04-11T00:17:47.604Z,800.26
2018-04-11T00:17:51.845Z,800.23
2018-04-11T00:17:56.169Z,800.27
2018-04-11T00:18:00.181Z,800.24
2018-04-11T00:18:04.389Z,800.3
2018-04-11T00:18:08.494Z,800.3
2018-04-11T00:18:12.705Z,800.32
2018-04-11T00:18:17.031Z,800.35
2018-04-11T00:18:21.350Z,800.35
2018-04-11T00:18:25.556Z,800.35
2018-04-11T00:18:29.871Z,800.39
2018-04-11T00:18:34.183Z,800.33
2018-04-11T00:18:38.399Z,800.36
2018-04-11T00:18:42.493Z,800.41
2018-04-11T00:18:46.814Z,800.37
2018-04-11T00:18:51.024Z,800.41
2018-04-11T00:18:55.351Z,800.41
2018-04-11T00:18:59.457Z,800.36
2018-04-11T00:19:03.874Z,800.44
2018-04-11T00:19:08.097Z,800.46
2018-04-11T00:19:12.303Z,800.44
2018-04-11T00:19:16.412Z,800.43
2018-04-11T00:19:20.627Z,800.47
2018-04-11T00:19:24.834Z,800.49
2018-04-11T00:19:28.941Z,800.46
2018-04-11T00:19:33.254Z,800.49
2018-04-11T00:19:37.465Z,800.51
2018-04-11T00:19:41.780Z,800.51
2018-04-11T00:19:46.046Z,800.5
2018-04-11T00:19:50.358Z,800.52
2018-04-11T00:19:54.473Z,800.57
2018-04-11T00:19:58.690Z,800.54
2018-04-11T00:20:02.911Z,800.55
2018-04-11T00:20:07.163Z,800.58
2018-04-11T00:20:11.373Z,800.58
2018-04-11T00:20:15.377Z,800.57
2018-04-11T00:20:19.586Z,800.58
2018-04-11T00:20:23.909Z,800.59
2018-04-11T00:20:28.117Z,800.57
2018-04-11T00:20:32.331Z,800.59
2018-04-11T00:20:36.571Z,800.55
2018-04-11T00:20:40.786Z,800.58
2018-04-11T00:20:45.101Z,800.63
2018-04-11T00:20:49.309Z,800.64
2018-04-11T00:20:53.683Z,800.64
2018-04-11T00:20:57.792Z,800.63
2018-04-11T00:21:01.901Z,800.67
2018-04-11T00:21:05.895Z,800.63
2018-04-11T00:21:10.110Z,800.62
2018-04-11T00:21:14.427Z,800.68
2018-04-11T00:21:18.739Z,800.7
2018-04-11T00:21:22.966Z,800.71
2018-04-11T00:21:27.184Z,800.72
2018-04-11T00:21:31.285Z,800.72
2018-04-11T00:21:35.610Z,800.73
2018-04-11T00:21:39.817Z,800.74
2018-04-11T00:21:44.028Z,800.73
2018-04-11T00:21:48.344Z,800.73
2018-04-11T00:21:52.553Z,800.76
2018-04-11T00:21:56.872Z,800.75
2018-04-11T00:22:01.078Z,800.77
2018-04-11T00:22:05.074Z,800.73
2018-04-11T00:22:09.070Z,800.76
2018-04-11T00:22:13.387Z,800.77
2018-04-11T00:22:17.602Z,800.76
2018-04-11T00:22:21.810Z,800.76
2018-04-11T00:22:26.020Z,800.8
2018-04-11T00:22:30.130Z,800.8
2018-04-11T00:22:34.455Z,800.83
2018-04-11T00:22:38.664Z,800.8
2018-04-11T00:22:42.981Z,800.82
2018-04-11T00:22:47.199Z,800.8
2018-04-11T00:22:51.516Z,800.82
2018-04-11T00:22:55.720Z,800.87
2018-04-11T00:23:00.040Z,800.85
2018-04-11T00:23:04.450Z,800.84
2018-04-11T00:23:08.549Z,800.9
2018-04-11T00:23:12.647Z,800.89
2018-04-11T00:23:16.854Z,800.93
2018-04-11T00:23:21.176Z,800.91
2018-04-11T00:23:25.276Z,800.93
2018-04-11T00:23:29.493Z,800.94
2018-04-11T00:23:33.703Z,800.94
2018-04-11T00:23:37.914Z,800.92
2018-04-11T00:23:42.146Z,800.95
2018-04-11T00:23:46.353Z,800.96
2018-04-11T00:23:50.674Z,800.97
2018-04-11T00:23:54.996Z,800.96
2018-04-11T00:23:59.207Z,800.95
2018-04-11T00:24:03.330Z,800.95
2018-04-11T00:24:07.216Z,801
2018-04-11T00:24:11.108Z,801.03
2018-04-11T00:24:15.114Z,800.99
2018-04-11T00:24:19.437Z,801.01
2018-04-11T00:24:23.557Z,801.02
2018-04-11T00:24:27.661Z,801.02
2018-04-11T00:24:31.878Z,801.04
2018-04-11T00:24:36.194Z,801.03
2018-04-11T00:24:40.405Z,801.04
2018-04-11T00:24:44.721Z,800.98
2018-04-11T00:24:48.941Z,801.04
2018-04-11T00:24:53.261Z,801.04
2018-04-11T00:24:57.355Z,801.04
2018-04-11T00:25:01.672Z,801.06
2018-04-11T00:25:06.021Z,801.06
2018-04-11T00:25:10.015Z,801.08
2018-04-11T00:25:14.335Z,801.08
2018-04-11T00:25:18.666Z,801.08
2018-04-11T00:25:22.658Z,801.06
2018-04-11T00:25:26.866Z,801.08
2018-04-11T00:25:31.074Z,801.12
2018-04-11T00:25:35.177Z,801.1
2018-04-11T00:25:39.383Z,801.09
2018-04-11T00:25:43.597Z,801.05
2018-04-11T00:25:47.809Z,801.06
2018-04-11T00:25:52.015Z,801.11
2018-04-11T00:25:56.226Z,801.12
2018-04-11T00:26:00.554Z,801.11
2018-04-11T00:26:05.060Z,801.11
2018-04-11T00:26:09.051Z,801.15
2018-04-11T00:26:13.269Z,801.11
2018-04-11T00:26:17.374Z,801.1
2018-04-11T00:26:21.700Z,801.14
2018-04-11T00:26:25.804Z,801.1
2018-04-11T00:26:30.019Z,801.15
2018-04-11T00:26:34.231Z,801.15
2018-04-11T00:26:38.436Z,801.12
2018-04-11T00:26:42.536Z,801.09
2018-04-11T00:26:46.763Z,801.07
2018-04-11T00:26:50.971Z,801.16
2018-04-11T00:26:55.193Z,801.08
2018-04-11T00:26:59.408Z,801.13
2018-04-11T00:27:03.711Z,801.1
2018-04-11T00:27:07.818Z,801.15
2018-04-11T00:27:11.919Z,801.14
2018-04-11T00:27:16.130Z,801.17
2018-04-11T00:27:20.344Z,801.16
2018-04-11T00:27:24.343Z,801.16
2018-04-11T00:27:28.601Z,801.16
2018-04-11T00:27:32.804Z,801.18
2018-04-11T00:27:37.119Z,801.15
2018-04-11T00:27:41.453Z,801.18
2018-04-11T00:27:45.568Z,801.17
2018-04-11T00:27:49.785Z,801.16
2018-04-11T00:27:53.993Z,801.15
2018-04-11T00:27:58.095Z,801.18
2018-04-11T00:28:02.201Z,801.18
2018-04-11T00:28:06.534Z,801.13
2018-04-11T00:28:10.754Z,801.16
2018-04-11T00:28:15.068Z,801.18
2018-04-11T00:28:19.278Z,801.17
2018-04-11T00:28:23.487Z,801.17
2018-04-11T00:28:27.701Z,801.15
2018-04-11T00:28:32.021Z,801.15
2018-04-11T00:28:36.338Z,801.16
2018-04-11T00:28:40.667Z,801.16
2018-04-11T00:28:44.988Z,801.18
2018-04-11T00:28:49.199Z,801.14
2018-04-11T00:28:53.524Z,801.19
2018-04-11T00:28:57.851Z,801.14
2018-04-11T00:29:01.976Z,801.1
2018-04-11T00:29:06.244Z,801.16
2018-04-11T00:29:10.340Z,801.14
2018-04-11T00:29:14.334Z,801.18
2018-04-11T00:29:18.654Z,801.17
2018-04-11T00:29:22.978Z,801.17
2018-04-11T00:29:27.195Z,801.19
2018-04-11T00:29:31.312Z,801.18
2018-04-11T00:29:35.631Z,801.17
2018-04-11T00:29:39.952Z,801.19
2018-04-11T00:29:44.291Z,801.17
2018-04-11T00:29:48.680Z,801.17
2018-04-11T00:29:52.781Z,801.13
2018-04-11T00:29:56.889Z,801.17
2018-04-11T00:30:01.095Z,801.14
2018-04-11T00:30:05.142Z,801.17
2018-04-11T00:30:09.254Z,801.16
2018-04-11T00:30:13.364Z,801.17
2018-04-11T00:30:17.680Z,801.17
2018-04-11T00:30:21.886Z,801.15
2018-04-11T00:30:26.095Z,801.1
2018-04-11T00:30:30.200Z,801.12
2018-04-11T00:30:34.305Z,801.1
2018-04-11T00:30:38.622Z,801.17
2018-04-11T00:30:42.942Z,801.19
2018-04-11T00:30:47.263Z,801.14
2018-04-11T00:30:51.579Z,801.14
2018-04-11T00:30:55.786Z,801.15
2018-04-11T00:31:00.001Z,801.16
2018-04-11T00:31:04.102Z,801.13
2018-04-11T00:31:08.313Z,801.17
2018-04-11T00:31:12.416Z,801.16
2018-04-11T00:31:16.731Z,801.14
2018-04-11T00:31:20.836Z,801.15
2018-04-11T00:31:24.831Z,801.14
2018-04-11T00:31:28.935Z,801.14
2018-04-11T00:31:32.936Z,801.14
2018-04-11T00:31:37.249Z,801.18
2018-04-11T00:31:41.458Z,801.13
2018-04-11T00:31:45.780Z,801.16
2018-04-11T00:31:50.093Z,801.08
2018-04-11T00:31:54.451Z,801.12
2018-04-11T00:31:58.669Z,801.1
2018-04-11T00:32:02.682Z,801.09
2018-04-11T00:32:06.894Z,801.13
2018-04-11T00:32:11.216Z,801.15
2018-04-11T00:32:15.211Z,801.13
2018-04-11T00:32:19.466Z,801.1
2018-04-11T00:32:23.587Z,801.11
2018-04-11T00:32:27.793Z,801.09
2018-04-11T00:32:32.001Z,801.13
2018-04-11T00:32:36.213Z,801.13
2018-04-11T00:32:40.418Z,801.09
2018-04-11T00:32:44.621Z,801.14
2018-04-11T00:32:48.825Z,801.12
2018-04-11T00:32:53.037Z,801.14
2018-04-11T00:32:57.247Z,801.16
2018-04-11T00:33:01.758Z,801.13
2018-04-11T00:33:05.753Z,801.16
2018-04-11T00:33:09.969Z,801.17
2018-04-11T00:33:14.182Z,801.18
2018-04-11T00:33:18.397Z,801.14
2018-04-11T00:33:22.493Z,801.12
2018-04-11T00:33:26.700Z,801.13
2018-04-11T00:33:31.017Z,801.12
2018-04-11T00:33:35.340Z,801.12
2018-04-11T00:33:39.449Z,801.13
2018-04-11T00:33:43.766Z,801.08
2018-04-11T00:33:48.081Z,801.12
2018-04-11T00:33:52.400Z,801.14
2018-04-11T00:33:56.715Z,801.1
2018-04-11T00:34:00.933Z,801.11
2018-04-11T00:34:05.078Z,801.1
2018-04-11T00:34:09.073Z,801.12
2018-04-11T00:34:13.280Z,801.12
2018-04-11T00:34:17.594Z,801.13
2018-04-11T00:34:21.903Z,801.12
2018-04-11T00:34:26.131Z,801.14
2018-04-11T00:34:30.346Z,801.1
2018-04-11T00:34:34.555Z,801.11
2018-04-11T00:34:38.875Z,801.09
2018-04-11T00:34:43.091Z,801.1
2018-04-11T00:34:47.402Z,801.07
2018-04-11T00:34:51.394Z,801.1
2018-04-11T00:34:55.610Z,801.08
2018-04-11T00:34:59.936Z,801.09
2018-04-11T00:35:04.503Z,801.1
2018-04-11T00:35:08.843Z,801.09
2018-04-11T00:35:13.180Z,801.09
2018-04-11T00:35:17.278Z,801.04
2018-04-11T00:35:21.596Z,801.06
2018-04-11T00:35:25.920Z,801.08
2018-04-11T00:35:30.237Z,801.01
2018-04-11T00:35:34.343Z,801.09
2018-04-11T00:35:38.548Z,801.09
2018-04-11T00:35:42.864Z,801.05
2018-04-11T00:35:47.173Z,801.06
2018-04-11T00:35:51.381Z,801.07
2018-04-11T00:35:55.594Z,801.1
2018-04-11T00:35:59.818Z,801.08
2018-04-11T00:36:04.178Z,801.08
2018-04-11T00:36:08.180Z,801.03
2018-04-11T00:36:12.501Z,801.05
2018-04-11T00:36:16.708Z,801.04
2018-04-11T00:36:20.820Z,801.06
2018-04-11T00:36:25.028Z,801.03
2018-04-11T00:36:29.341Z,801.06
2018-04-11T00:36:33.445Z,801.06
2018-04-11T00:36:37.770Z,801.05
2018-04-11T00:36:42.094Z,801.05
2018-04-11T00:36:46.434Z,801.05
2018-04-11T00:36:50.757Z,801.03
2018-04-11T00:36:54.874Z,801.03
2018-04-11T00:36:59.081Z,801.01
2018-04-11T00:37:03.501Z,800.99
2018-04-11T00:37:07.818Z,801.01
2018-04-11T00:37:12.036Z,801.03
2018-04-11T00:37:16.243Z,801.01
2018-04-11T00:37:20.449Z,801.02
2018-04-11T00:37:24.653Z,801.01
2018-04-11T00:37:28.749Z,801.03
2018-04-11T00:37:33.063Z,801.03
2018-04-11T00:37:37.268Z,800.99
2018-04-11T00:37:41.581Z,800.96
2018-04-11T00:37:45.907Z,800.99
2018-04-11T00:37:50.119Z,800.96
2018-04-11T00:37:54.439Z,800.99
2018-04-11T00:37:58.652Z,800.98
2018-04-11T00:38:02.660Z,800.93
2018-04-11T00:38:06.766Z,800.93
2018-04-11T00:38:11.083Z,800.93
2018-04-11T00:38:15.400Z,800.93
2018-04-11T00:38:19.611Z,800.99
2018-04-11T00:38:23.819Z,800.96
2018-04-11T00:38:27.918Z,800.92
2018-04-11T00:38:32.233Z,800.94
2018-04-11T00:38:36.549Z,800.95
2018-04-11T00:38:40.804Z,800.94
2018-04-11T00:38:45.012Z,800.89
2018-04-11T00:38:49.323Z,800.88
2018-04-11T00:38:53.530Z,800.89
2018-04-11T00:38:57.778Z,800.9
2018-04-11T00:39:01.767Z,800.92
2018-04-11T00:39:05.874Z,800.9
2018-04-11T00:39:09.874Z,800.88
2018-04-11T00:39:13.980Z,800.9
2018-04-11T00:39:18.186Z,800.84
2018-04-11T00:39:22.398Z,800.89
2018-04-11T00:39:26.616Z,800.9
2018-04-11T00:39:30.928Z,800.88
2018-04-11T00:39:35.242Z,800.91
2018-04-11T00:39:39.340Z,800.86
2018-04-11T00:39:43.665Z,800.87
2018-04-11T00:39:47.985Z,800.86
2018-04-11T00:39:52.197Z,800.85
2018-04-11T00:39:56.534Z,800.81
2018-04-11T00:40:00.861Z,800.83
2018-04-11T00:40:05.327Z,800.83
2018-04-11T00:40:09.323Z,800.8
2018-04-11T00:40:13.530Z,800.8
2018-04-11T00:40:17.752Z,800.76
2018-04-11T00:40:21.983Z,800.81
2018-04-11T00:40:26.303Z,800.77
2018-04-11T00:40:30.315Z,800.71
2018-04-11T00:40:34.673Z,800.79
2018-04-11T00:40:38.884Z,800.77
2018-04-11T00:40:43.197Z,800.77
2018-04-11T00:40:47.512Z,800.75
2018-04-11T00:40:51.829Z,800.72
2018-04-11T00:40:56.044Z,800.75
2018-04-11T00:41:00.257Z,800.67
2018-04-11T00:41:04.622Z,800.69
2018-04-11T00:41:08.728Z,800.73
2018-04-11T00:41:12.938Z,800.69
2018-04-11T00:41:17.160Z,800.7
2018-04-11T00:41:21.374Z,800.69
2018-04-11T00:41:25.583Z,800.73
2018-04-11T00:41:29.696Z,800.7
2018-04-11T00:41:33.799Z,800.72
2018-04-11T00:41:37.865Z,800.71
2018-04-11T00:41:42.180Z,800.7
2018-04-11T00:41:46.499Z,800.67
2018-04-11T00:41:50.703Z,800.66
2018-04-11T00:41:55.027Z,800.66
2018-04-11T00:41:59.237Z,800.64
2018-04-11T00:42:03.292Z,800.64
2018-04-11T00:42:07.285Z,800.63
2018-04-11T00:42:11.496Z,800.63
2018-04-11T00:42:15.493Z,800.6
2018-04-11T00:42:19.705Z,800.62
2018-04-11T00:42:23.708Z,800.61
2018-04-11T00:42:28.030Z,800.64
2018-04-11T00:42:32.248Z,800.59
2018-04-11T00:42:36.243Z,800.59
2018-04-11T00:42:40.568Z,800.58
2018-04-11T00:42:44.779Z,800.57
2018-04-11T00:42:49.094Z,800.58
2018-04-11T00:42:53.409Z,800.56
2018-04-11T00:42:57.508Z,800.5
2018-04-11T00:43:01.914Z,800.56
2018-04-11T00:43:06.141Z,800.56
2018-04-11T00:43:10.471Z,800.53
2018-04-11T00:43:14.574Z,800.56
2018-04-11T00:43:18.785Z,800.54
2018-04-11T00:43:22.772Z,800.53
2018-04-11T00:43:27.091Z,800.53
2018-04-11T00:43:31.414Z,800.53
2018-04-11T00:43:35.735Z,800.5
2018-04-11T00:43:39.959Z,800.52
2018-04-11T00:43:44.272Z,800.48
2018-04-11T00:43:48.594Z,800.48
2018-04-11T00:43:52.593Z,800.48
2018-04-11T00:43:56.915Z,800.45
2018-04-11T00:44:01.246Z,800.42
2018-04-11T00:44:05.461Z,800.45
2018-04-11T00:44:09.457Z,800.44
2018-04-11T00:44:13.770Z,800.43
2018-04-11T00:44:18.092Z,800.4
2018-04-11T00:44:22.426Z,800.41
2018-04-11T00:44:26.671Z,800.42
2018-04-11T00:44:30.877Z,800.37
2018-04-11T00:44:35.088Z,800.39
2018-04-11T00:44:39.297Z,800.38
2018-04-11T00:44:43.610Z,800.38
2018-04-11T00:44:47.830Z,800.36
2018-04-11T00:44:52.037Z,800.37
2018-04-11T00:44:55.921Z,800.4
2018-04-11T00:45:00.022Z,800.37
2018-04-11T00:45:04.017Z,800.36
2018-04-11T00:45:08.014Z,800.32
2018-04-11T00:45:12.227Z,800.34
2018-04-11T00:45:16.439Z,800.35
2018-04-11T00:45:20.649Z,800.34
2018-04-11T00:45:24.752Z,800.33
2018-04-11T00:45:29.088Z,800.34
2018-04-11T00:45:33.299Z,800.3
2018-04-11T00:45:37.618Z,800.29
2018-04-11T00:45:41.981Z,800.29
2018-04-11T00:45:46.295Z,800.3
2018-04-11T00:45:50.504Z,800.29
2018-04-11T00:45:54.711Z,800.3
2018-04-11T00:45:58.925Z,800.28
2018-04-11T00:46:03.174Z,800.27
2018-04-11T00:46:07.285Z,800.24
2018-04-11T00:46:11.605Z,800.27
2018-04-11T00:46:15.925Z,800.23
2018-04-11T00:46:20.263Z,800.24
2018-04-11T00:46:24.723Z,800.24
2018-04-11T00:46:28.787Z,800.18
2018-04-11T00:46:32.911Z,800.2
2018-04-11T00:46:37.011Z,800.18
2018-04-11T00:46:41.232Z,800.2
2018-04-11T00:46:45.447Z,800.18
2018-04-11T00:46:49.770Z,800.15
2018-04-11T00:46:53.975Z,800.16
2018-04-11T00:46:58.181Z,800.17
2018-04-11T00:47:02.537Z,800.15
2018-04-11T00:47:06.779Z,800.16
2018-04-11T00:47:10.885Z,800.15
2018-04-11T00:47:15.104Z,800.16
2018-04-11T00:47:19.431Z,800.11
2018-04-11T00:47:23.644Z,800.12
2018-04-11T00:47:27.965Z,800.13
2018-04-11T00:47:31.956Z,800.12
2018-04-11T00:47:36.278Z,800.12
2018-04-11T00:47:40.598Z,800.1
2018-04-11T00:47:44.809Z,800.1
2018-04-11T00:47:49.029Z,800.11
2018-04-11T00:47:53.270Z,800.12
2018-04-11T00:47:57.592Z,800.09
2018-04-11T00:48:01.994Z,800.07
2018-04-11T00:48:06.216Z,800.05
2018-04-11T00:48:10.435Z,800.02
2018-04-11T00:48:14.644Z,800.07
2018-04-11T00:48:18.748Z,800.08
2018-04-11T00:48:23.078Z,800.06
2018-04-11T00:48:27.181Z,800.06
2018-04-11T00:48:31.382Z,800.07
2018-04-11T00:48:35.696Z,800.06
2018-04-11T00:48:39.904Z,800.04
2018-04-11T00:48:44.221Z,800.05
2018-04-11T00:48:48.541Z,800.05
2018-04-11T00:48:52.655Z,800.01
2018-04-11T00:48:56.666Z,800.04
2018-04-11T00:49:00.769Z,800.02
2018-04-11T00:49:05.279Z,800.01
2018-04-11T00:49:09.496Z,799.98
2018-04-11T00:49:13.705Z,800.05
2018-04-11T00:49:18.024Z,799.98
2018-04-11T00:49:22.230Z,799.99
2018-04-11T00:49:26.450Z,800.01
2018-04-11T00:49:30.443Z,799.99
2018-04-11T00:49:34.650Z,800
2018-04-11T00:49:38.962Z,799.99
2018-04-11T00:49:43.170Z,799.99
2018-04-11T00:49:47.488Z,799.98
2018-04-11T00:49:51.589Z,799.96
2018-04-11T00:49:55.908Z,799.94
2018-04-11T00:50:00.013Z,799.92
2018-04-11T00:50:03.907Z,799.92
2018-04-11T00:50:08.011Z,799.97
2018-04-11T00:50:12.335Z,799.94
2018-04-11T00:50:16.664Z,799.96
2018-04-11T00:50:20.882Z,799.96
2018-04-11T00:50:24.987Z,799.93
2018-04-11T00:50:29.212Z,799.96
2018-04-11T00:50:33.523Z,799.93
2018-04-11T00:50:37.623Z,799.92
2018-04-11T00:50:41.950Z,799.95
2018-04-11T00:50:46.268Z,799.91
2018-04-11T00:50:50.587Z,799.93
2018-04-11T00:50:54.898Z,799.92
2018-04-11T00:50:59.106Z,799.9
2018-04-11T00:51:03.204Z,799.91
2018-04-11T00:51:07.522Z,799.91
2018-04-11T00:51:11.733Z,799.9
2018-04-11T00:51:15.834Z,799.92
2018-04-11T00:51:20.044Z,799.92
2018-04-11T00:51:24.250Z,799.88
2018-04-11T00:51:28.568Z,799.89
2018-04-11T00:51:32.672Z,799.91
2018-04-11T00:51:36.989Z,799.89
2018-04-11T00:51:41.098Z,799.89
2018-04-11T00:51:45.200Z,799.91
2018-04-11T00:51:49.305Z,799.88
2018-04-11T00:51:53.616Z,799.86
2018-04-11T00:51:57.819Z,799.89
2018-04-11T00:52:01.717Z,799.86
2018-04-11T00:52:05.832Z,799.88
2018-04-11T00:52:09.929Z,799.89
2018-04-11T00:52:14.140Z,799.88
2018-04-11T00:52:18.451Z,799.87
2018-04-11T00:52:22.550Z,799.84
2018-04-11T00:52:26.761Z,799.86
2018-04-11T00:52:30.860Z,799.87
2018-04-11T00:52:35.223Z,799.87
2018-04-11T00:52:39.531Z,799.84
2018-04-11T00:52:43.752Z,799.86